createdAt,value
2023-04-22T00:01:54.196Z,3.30
2023-04-22T00:04:21.482Z,3.00
2023-04-22T00:06:48.718Z,3.27
2023-04-22T00:09:16.308Z,3.07
2023-04-22T00:11:46.874Z,3.23
2023-04-22T00:14:14.001Z,3.17
2023-04-22T00:16:43.229Z,2.80
2023-04-22T00:19:10.727Z,3.37
2023-04-22T00:21:38.408Z,3.40
2023-04-22T00:24:06.746Z,4.30
2023-04-22T00:26:37.200Z,4.20
2023-04-22T00:29:04.086Z,3.63
2023-04-22T00:31:31.902Z,3.20
2023-04-22T00:34:01.513Z,2.93
2023-04-22T00:36:31.768Z,6.17
2023-04-22T00:38:59.285Z,3.40
2023-04-22T00:41:27.150Z,3.20
2023-04-22T00:43:58.492Z,3.30
2023-04-22T00:46:26.628Z,4.10
2023-04-22T00:48:54.093Z,4.17
2023-04-22T00:51:23.124Z,3.10
2023-04-22T00:53:53.917Z,3.37
2023-04-22T00:56:22.035Z,3.17
2023-04-22T00:58:49.657Z,2.63
2023-04-22T01:01:19.801Z,3.30
2023-04-22T01:06:44.634Z,3.10
2023-04-22T01:09:11.897Z,3.80
2023-04-22T01:11:39.650Z,3.40
2023-04-22T01:14:07.197Z,4.00
2023-04-22T01:16:39.330Z,3.07
2023-04-22T01:19:06.862Z,3.40
2023-04-22T01:21:36.132Z,10.00
2023-04-22T01:24:05.382Z,3.60
2023-04-22T01:26:33.210Z,3.57
2023-04-22T01:29:02.661Z,5.87
2023-04-22T01:31:38.582Z,2.70
2023-04-22T01:34:08.702Z,3.13
2023-04-22T01:36:36.032Z,3.03
2023-04-22T01:39:08.207Z,4.37
2023-04-22T01:41:37.918Z,3.40
2023-04-22T01:44:05.460Z,2.93
2023-04-22T01:46:45.003Z,3.30
2023-04-22T01:49:18.240Z,4.10
2023-04-22T01:51:47.223Z,3.43
2023-04-22T01:54:16.296Z,6.70
2023-04-22T01:56:50.955Z,3.33
2023-04-22T01:59:24.147Z,3.27
2023-04-22T02:01:51.814Z,3.30
2023-04-22T02:04:19.194Z,3.83
2023-04-22T02:06:47.072Z,2.93
2023-04-22T02:09:22.108Z,2.87
2023-04-22T02:11:49.200Z,5.00
2023-04-22T02:14:26.945Z,3.27
2023-04-22T02:16:57.628Z,3.77
2023-04-22T02:19:24.546Z,3.20
2023-04-22T02:21:52.433Z,3.80
2023-04-22T02:24:21.328Z,3.07
2023-04-22T02:26:51.404Z,3.63
2023-04-22T02:29:56.847Z,3.80
2023-04-22T02:32:23.878Z,3.20
2023-04-22T02:34:52.124Z,3.40
2023-04-22T02:40:11.036Z,3.93
2023-04-22T02:42:38.555Z,4.70
2023-04-22T02:45:07.229Z,7.47
2023-04-22T02:47:38.039Z,3.60
2023-04-22T02:50:06.728Z,3.47
2023-04-22T02:52:40.033Z,2.80
2023-04-22T02:55:10.532Z,2.90
2023-04-22T02:57:41.076Z,2.50
2023-04-22T03:00:11.012Z,3.43
2023-04-22T03:02:38.885Z,3.23
2023-04-22T03:05:07.627Z,3.87
2023-04-22T03:07:35.356Z,3.20
2023-04-22T03:10:08.294Z,4.47
2023-04-22T03:12:37.091Z,3.53
2023-04-22T03:15:05.783Z,3.60
2023-04-22T03:17:32.913Z,2.90
2023-04-22T03:20:03.283Z,3.43
2023-04-22T03:22:30.363Z,3.60
2023-04-22T03:25:01.612Z,6.47
2023-04-22T03:27:28.753Z,3.00
2023-04-22T03:29:57.960Z,3.10
2023-04-22T03:32:25.372Z,3.23
2023-04-22T03:34:56.130Z,3.70
2023-04-22T03:37:23.146Z,3.80
2023-04-22T03:39:50.638Z,3.30
2023-04-22T03:42:18.083Z,4.27
2023-04-22T03:47:34.797Z,3.13
2023-04-22T03:50:01.837Z,3.50
2023-04-22T03:52:28.763Z,3.33
2023-04-22T03:54:55.851Z,3.27
2023-04-22T03:57:26.422Z,3.33
2023-04-22T03:59:54.157Z,2.50
2023-04-22T04:02:21.473Z,2.70
2023-04-22T04:04:51.762Z,3.30
2023-04-22T04:07:19.071Z,3.87
2023-04-22T04:09:46.800Z,4.03
2023-04-22T04:12:13.847Z,5.10
2023-04-22T04:14:41.585Z,4.03
2023-04-22T04:17:14.010Z,3.43
2023-04-22T04:19:42.118Z,3.27
2023-04-22T04:22:11.046Z,3.30
2023-04-22T04:24:42.771Z,3.47
2023-04-22T04:27:16.149Z,3.00
2023-04-22T04:29:46.605Z,2.87
2023-04-22T04:32:14.788Z,3.13
2023-04-22T04:34:42.522Z,3.00
2023-04-22T04:37:19.279Z,3.90
2023-04-22T04:39:46.225Z,3.63
2023-04-22T04:42:14.383Z,6.10
2023-04-22T04:44:42.007Z,3.03
2023-04-22T04:47:15.994Z,5.17
2023-04-22T04:49:44.346Z,3.07
2023-04-22T04:52:12.658Z,3.13
2023-04-22T04:54:46.515Z,3.70
2023-04-22T04:59:58.260Z,3.03
2023-04-22T05:02:26.000Z,3.73
2023-04-22T05:04:53.285Z,4.17
2023-04-22T05:10:08.141Z,2.47
2023-04-22T05:12:35.713Z,4.27
2023-04-22T05:15:03.267Z,3.10
2023-04-22T05:17:33.929Z,7.93
2023-04-22T05:20:00.893Z,3.60
2023-04-22T05:22:37.411Z,2.70
2023-04-22T05:25:05.014Z,3.40
2023-04-22T05:27:32.609Z,3.10
2023-04-22T05:29:59.543Z,6.43
2023-04-22T05:32:27.529Z,3.53
2023-04-22T05:34:54.518Z,3.40
2023-04-22T05:37:21.509Z,6.03
2023-04-22T05:39:50.371Z,4.10
2023-04-22T05:42:17.464Z,3.47
2023-04-22T05:44:44.747Z,3.40
2023-04-22T05:47:11.879Z,3.00
2023-04-22T05:49:41.981Z,3.20
2023-04-22T05:52:09.275Z,7.03
2023-04-22T05:54:36.812Z,3.50
2023-04-22T05:57:05.814Z,3.47
2023-04-22T05:59:36.189Z,4.13
2023-04-22T06:02:04.553Z,3.20
2023-04-22T06:04:34.555Z,3.07
2023-04-22T06:07:04.002Z,3.60
2023-04-22T06:09:31.728Z,4.87
2023-04-22T06:11:58.943Z,3.50
2023-04-22T06:14:27.294Z,4.27
2023-04-22T06:16:59.519Z,5.27
2023-04-22T06:19:27.078Z,5.07
2023-04-22T06:21:56.624Z,3.30
2023-04-22T06:24:27.078Z,3.13
2023-04-22T06:26:54.140Z,7.10
2023-04-22T06:29:21.142Z,11.43
2023-04-22T06:34:34.217Z,8.13
2023-04-22T06:37:01.882Z,3.90
2023-04-22T06:39:28.949Z,5.63
2023-04-22T06:41:57.168Z,3.50
2023-04-22T06:44:25.860Z,4.40
2023-04-22T06:46:56.489Z,6.47
2023-04-22T06:49:25.487Z,3.90
2023-04-22T06:51:55.509Z,3.37
2023-04-22T06:54:23.071Z,3.67
2023-04-22T06:56:50.045Z,3.67
2023-04-22T06:59:17.525Z,3.43
2023-04-22T07:01:44.569Z,4.03
2023-04-22T07:04:14.775Z,3.67
2023-04-22T07:06:43.228Z,4.57
2023-04-22T07:09:10.741Z,4.73
2023-04-22T07:11:37.816Z,3.43
2023-04-22T07:14:07.560Z,3.93
2023-04-22T07:16:38.970Z,3.73
2023-04-22T07:19:07.313Z,3.57
2023-04-22T07:21:38.049Z,3.03
2023-04-22T07:24:05.991Z,3.10
2023-04-22T07:26:34.437Z,3.10
2023-04-22T07:29:04.365Z,4.00
2023-04-22T07:31:31.913Z,2.97
2023-04-22T07:33:59.525Z,4.27
2023-04-22T07:36:26.765Z,3.20
2023-04-22T07:38:55.532Z,2.73
2023-04-22T07:41:22.682Z,2.90
2023-04-22T07:43:50.309Z,3.60
2023-04-22T07:46:17.327Z,4.90
2023-04-22T07:48:45.492Z,4.93
2023-04-22T07:51:13.088Z,3.60
2023-04-22T07:53:40.593Z,3.60
2023-04-22T07:56:09.647Z,4.23
2023-04-22T07:58:37.108Z,4.00
2023-04-22T08:01:04.670Z,3.70
2023-04-22T08:03:31.944Z,3.73
2023-04-22T08:05:59.093Z,5.53
2023-04-22T08:08:26.624Z,4.87
2023-04-22T08:10:54.374Z,4.43
2023-04-22T08:13:22.807Z,5.03
2023-04-22T08:15:59.914Z,4.67
2023-04-22T08:18:27.472Z,5.20
2023-04-22T08:20:54.843Z,5.03
2023-04-22T08:23:23.158Z,5.70
2023-04-22T08:25:50.252Z,7.97
2023-04-22T08:28:17.988Z,6.07
2023-04-22T08:30:46.693Z,5.63
2023-04-22T08:33:13.694Z,6.00
2023-04-22T08:35:41.075Z,7.30
2023-04-22T08:38:08.252Z,6.67
2023-04-22T08:40:36.358Z,8.33
2023-04-22T08:43:06.426Z,7.10
2023-04-22T08:45:41.115Z,6.90
2023-04-22T08:48:10.763Z,8.90
2023-04-22T08:50:41.967Z,7.50
2023-04-22T08:53:09.105Z,7.93
2023-04-22T08:55:37.169Z,7.53
2023-04-22T08:58:07.659Z,9.00
2023-04-22T09:00:36.560Z,6.93
2023-04-22T09:03:07.187Z,9.50
2023-04-22T09:05:38.309Z,6.53
2023-04-22T09:08:10.236Z,7.40
2023-04-22T09:10:38.388Z,6.43
2023-04-22T09:13:09.103Z,9.03
2023-04-22T09:15:36.216Z,7.40
2023-04-22T09:18:09.427Z,9.23
2023-04-22T09:20:42.572Z,7.57
2023-04-22T09:23:12.514Z,6.37
2023-04-22T09:25:41.730Z,7.60
2023-04-22T09:28:19.574Z,8.37
2023-04-22T09:30:50.126Z,8.57
2023-04-22T09:33:20.124Z,8.03
2023-04-22T09:35:49.260Z,7.93
2023-04-22T09:38:21.194Z,8.60
2023-04-22T09:40:48.709Z,9.27
2023-04-22T09:43:20.402Z,8.00
2023-04-22T09:45:48.000Z,7.20
2023-04-22T09:48:18.334Z,9.53
2023-04-22T09:50:50.798Z,7.93
2023-04-22T09:53:20.617Z,8.83
2023-04-22T09:55:51.984Z,11.30
2023-04-22T09:58:21.451Z,8.20
2023-04-22T10:00:54.690Z,8.77
2023-04-22T10:03:25.400Z,9.00
2023-04-22T10:05:53.787Z,9.17
2023-04-22T10:08:20.814Z,9.20
2023-04-22T10:10:48.547Z,9.00
2023-04-22T10:13:15.837Z,10.23
2023-04-22T10:15:48.681Z,8.70
2023-04-22T10:18:22.011Z,7.80
2023-04-22T10:20:51.569Z,8.00
2023-04-22T10:23:26.793Z,8.33
2023-04-22T10:25:56.505Z,8.17
2023-04-22T10:28:30.095Z,7.00
2023-04-22T10:30:57.912Z,7.70
2023-04-22T10:36:28.284Z,7.53
2023-04-22T10:39:19.357Z,7.63
2023-04-22T10:41:54.319Z,6.73
2023-04-22T10:44:24.155Z,5.90
2023-04-22T10:47:01.212Z,6.37
2023-04-22T10:49:31.685Z,6.17
2023-04-22T10:52:01.352Z,6.13
2023-04-22T10:55:05.673Z,6.00
2023-04-22T10:57:41.143Z,12.97
2023-04-22T11:00:45.755Z,6.20
2023-04-22T11:03:28.286Z,6.07
2023-04-22T11:06:24.865Z,9.53
2023-04-22T11:09:10.208Z,15.10
2023-04-22T11:11:39.045Z,19.53
2023-04-22T11:14:06.426Z,6.90
2023-04-22T11:16:34.426Z,6.57
2023-04-22T11:19:01.939Z,6.10
2023-04-22T11:21:29.197Z,7.30
2023-04-22T11:23:57.540Z,5.83
2023-04-22T11:26:35.237Z,6.30
2023-04-22T11:29:06.129Z,5.47
2023-04-22T11:31:36.704Z,4.90
2023-04-22T11:34:03.784Z,4.93
2023-04-22T11:36:31.773Z,4.97
2023-04-22T11:38:59.364Z,4.40
2023-04-22T11:41:29.960Z,4.30
2023-04-22T11:43:57.517Z,4.93
2023-04-22T11:46:38.442Z,4.47
2023-04-22T11:49:14.013Z,5.60
2023-04-22T11:51:56.536Z,4.40
2023-04-22T11:54:38.724Z,5.13
2023-04-22T11:57:11.622Z,10.93
2023-04-22T11:59:39.232Z,4.20
2023-04-22T12:02:11.468Z,3.80
2023-04-22T12:04:39.965Z,3.03
2023-04-22T12:07:07.851Z,3.67
2023-04-22T12:09:35.678Z,4.43
2023-04-22T12:12:04.005Z,4.23
2023-04-22T12:14:39.957Z,3.57
2023-04-22T12:17:12.092Z,2.93
2023-04-22T12:19:40.324Z,7.40
2023-04-22T12:22:07.522Z,4.53
2023-04-22T12:24:37.365Z,3.77
2023-04-22T12:27:04.577Z,3.27
2023-04-22T12:29:34.221Z,5.57
2023-04-22T12:32:01.279Z,3.63
2023-04-22T12:34:30.045Z,5.40
2023-04-22T12:37:00.381Z,3.60
2023-04-22T12:39:27.930Z,3.20
2023-04-22T12:41:58.545Z,2.67
2023-04-22T12:44:29.080Z,2.83
2023-04-22T12:46:56.674Z,6.50
2023-04-22T12:49:23.810Z,4.17
2023-04-22T12:51:53.023Z,5.43
2023-04-22T12:54:21.283Z,5.87
2023-04-22T12:56:51.054Z,4.00
2023-04-22T12:59:21.348Z,3.20
2023-04-22T13:01:52.080Z,3.20
2023-04-22T13:04:20.143Z,6.17
2023-04-22T13:06:56.743Z,3.10
2023-04-22T13:09:28.031Z,3.27
2023-04-22T13:12:07.156Z,3.23
2023-04-22T13:14:34.695Z,3.27
2023-04-22T13:17:04.123Z,5.43
2023-04-22T13:19:37.699Z,3.87
2023-04-22T13:22:06.993Z,4.80
2023-04-22T13:24:34.101Z,3.70
2023-04-22T13:27:08.552Z,6.43
2023-04-22T13:29:39.451Z,3.20
2023-04-22T13:32:09.570Z,3.40
2023-04-22T13:34:45.757Z,2.47
2023-04-22T13:37:23.705Z,6.17
2023-04-22T13:39:51.301Z,2.97
2023-04-22T13:42:31.721Z,4.53
2023-04-22T13:45:11.337Z,2.90
2023-04-22T13:47:42.791Z,2.40
2023-04-22T13:50:16.054Z,2.80
2023-04-22T13:52:45.267Z,3.47
2023-04-22T13:55:13.065Z,2.53
2023-04-22T13:57:41.320Z,4.17
2023-04-22T14:00:10.034Z,4.27
2023-04-22T14:02:41.627Z,2.40
2023-04-22T14:05:11.135Z,2.57
2023-04-22T14:07:46.908Z,5.83
2023-04-22T14:10:21.079Z,3.83
2023-04-22T14:12:50.122Z,5.57
2023-04-22T14:15:23.714Z,7.50
2023-04-22T14:18:00.124Z,3.17
2023-04-22T14:20:27.465Z,2.50
2023-04-22T14:22:56.816Z,2.90
2023-04-22T14:25:27.651Z,4.10
2023-04-22T14:27:58.772Z,2.60
2023-04-22T14:30:32.808Z,2.40
2023-04-22T14:33:07.582Z,3.40
2023-04-22T14:35:38.820Z,3.20
2023-04-22T14:38:11.196Z,4.87
2023-04-22T14:40:41.194Z,3.50
2023-04-22T14:43:21.491Z,3.90
2023-04-22T14:45:49.557Z,4.17
2023-04-22T14:48:16.977Z,3.87
2023-04-22T14:50:53.822Z,2.73
2023-04-22T14:53:26.329Z,3.60
2023-04-22T14:55:53.792Z,3.03
2023-04-22T14:58:21.834Z,2.57
2023-04-22T15:00:49.591Z,2.77
2023-04-22T15:03:17.751Z,3.37
2023-04-22T15:05:49.106Z,3.10
2023-04-22T15:08:16.557Z,2.80
2023-04-22T15:10:46.227Z,5.00
2023-04-22T15:13:14.241Z,3.70
2023-04-22T15:15:41.561Z,5.00
2023-04-22T15:18:12.715Z,5.00
2023-04-22T15:20:40.591Z,2.43
2023-04-22T15:23:08.049Z,7.20
2023-04-22T15:25:45.508Z,4.27
2023-04-22T15:28:16.956Z,2.20
2023-04-22T15:30:44.856Z,4.23
2023-04-22T15:33:16.614Z,2.80
2023-04-22T15:35:46.354Z,3.00
2023-04-22T15:38:14.254Z,2.87
2023-04-22T15:40:41.598Z,7.07
2023-04-22T15:43:12.840Z,2.57
2023-04-22T15:45:44.955Z,3.73
2023-04-22T15:48:12.416Z,5.80
2023-04-22T15:50:44.686Z,5.13
2023-04-22T15:53:12.633Z,3.73
2023-04-22T15:55:39.942Z,3.70
2023-04-22T15:58:07.313Z,3.70
2023-04-22T16:00:37.192Z,3.43
2023-04-22T16:03:09.589Z,4.43
2023-04-22T16:05:52.042Z,3.00
2023-04-22T16:08:22.437Z,3.77
2023-04-22T16:10:49.584Z,3.43
2023-04-22T16:13:17.606Z,3.20
2023-04-22T16:15:45.166Z,3.23
2023-04-22T16:18:15.022Z,3.40
2023-04-22T16:20:42.272Z,2.87
2023-04-22T16:23:09.309Z,5.00
2023-04-22T16:25:36.420Z,2.77
2023-04-22T16:28:03.669Z,3.77
2023-04-22T16:30:33.788Z,2.80
2023-04-22T16:33:00.868Z,4.60
2023-04-22T16:35:29.851Z,3.17
2023-04-22T16:38:00.708Z,3.83
2023-04-22T16:41:43.399Z,6.97
2023-04-22T16:44:10.619Z,2.87
2023-04-22T16:46:41.096Z,2.73
2023-04-22T16:49:10.469Z,4.53
2023-04-22T16:51:39.868Z,6.90
2023-04-22T16:54:07.969Z,6.13
2023-04-22T16:56:37.917Z,6.40
2023-04-22T16:59:05.413Z,3.50
2023-04-22T17:01:32.487Z,4.37
2023-04-22T17:04:06.460Z,3.63
2023-04-22T17:06:39.855Z,4.50
2023-04-22T17:09:09.997Z,3.37
2023-04-22T17:11:40.283Z,5.50
2023-04-22T17:14:07.737Z,3.60
2023-04-22T17:16:34.833Z,3.13
2023-04-22T17:19:03.394Z,3.43
2023-04-22T17:21:31.366Z,2.93
2023-04-22T17:24:00.300Z,3.20
2023-04-22T17:26:28.131Z,2.80
2023-04-22T17:28:55.212Z,6.77
2023-04-22T17:31:23.856Z,10.03
2023-04-22T17:33:55.308Z,9.37
2023-04-22T17:36:22.330Z,11.40
2023-04-22T17:38:49.886Z,18.50
2023-04-22T17:41:19.020Z,18.50
2023-04-22T17:43:46.419Z,20.47
2023-04-22T17:46:16.753Z,17.40
2023-04-22T17:48:46.534Z,6.53
2023-04-22T17:51:13.868Z,7.33
2023-04-22T17:53:42.480Z,5.67
2023-04-22T17:56:09.581Z,4.30
2023-04-22T17:58:41.635Z,5.23
2023-04-22T18:01:08.940Z,4.87
2023-04-22T18:03:36.683Z,3.87
2023-04-22T18:06:04.014Z,7.20
2023-04-22T18:11:16.264Z,5.03
2023-04-22T18:16:30.746Z,6.60
2023-04-22T18:18:59.891Z,10.93
2023-04-22T18:21:29.617Z,4.23
2023-04-22T18:23:57.273Z,5.00
2023-04-22T18:26:24.450Z,10.37
2023-04-22T18:28:52.930Z,9.97
2023-04-22T18:31:20.673Z,4.23
2023-04-22T18:33:47.839Z,3.07
2023-04-22T18:36:14.837Z,3.43
2023-04-22T18:38:43.422Z,2.30
2023-04-22T18:41:12.937Z,4.93
2023-04-22T18:43:40.251Z,3.37
2023-04-22T18:46:11.455Z,3.13
2023-04-22T18:48:38.764Z,5.80
2023-04-22T18:51:06.867Z,4.33
2023-04-22T18:53:34.345Z,4.53
2023-04-22T18:56:02.299Z,7.43
2023-04-22T18:58:32.244Z,3.43
2023-04-22T19:01:03.021Z,2.73
2023-04-22T19:03:38.398Z,3.23
2023-04-22T19:06:07.079Z,3.17
2023-04-22T19:08:34.379Z,3.30
2023-04-22T19:11:02.318Z,3.23
2023-04-22T19:13:30.307Z,3.63
2023-04-22T19:16:01.274Z,4.10
2023-04-22T19:18:28.361Z,3.83
2023-04-22T19:20:56.677Z,3.67
2023-04-22T19:23:26.610Z,3.00
2023-04-22T19:26:00.297Z,3.37
2023-04-22T19:28:27.429Z,2.90
2023-04-22T19:30:55.186Z,4.20
2023-04-22T19:33:28.012Z,3.13
2023-04-22T19:35:58.689Z,3.13
2023-04-22T19:38:28.693Z,3.10
2023-04-22T19:40:56.768Z,3.17
2023-04-22T19:43:23.733Z,4.13
2023-04-22T19:45:50.852Z,3.27
2023-04-22T19:51:06.669Z,3.30
2023-04-22T19:53:35.059Z,3.60
2023-04-22T19:56:03.527Z,3.67
2023-04-22T19:58:33.661Z,4.53
2023-04-22T20:01:04.683Z,3.70
2023-04-22T20:03:33.133Z,3.30
2023-04-22T20:06:00.763Z,3.83
2023-04-22T20:08:29.406Z,3.13
2023-04-22T20:10:58.200Z,6.60
2023-04-22T20:13:25.572Z,4.83
2023-04-22T20:15:53.447Z,3.23
2023-04-22T20:18:20.880Z,3.87
2023-04-22T20:23:51.374Z,3.70
2023-04-22T20:26:20.474Z,3.83
2023-04-22T20:28:49.737Z,4.33
2023-04-22T20:31:19.962Z,3.47
2023-04-22T20:33:47.907Z,3.40
2023-04-22T20:36:20.351Z,3.87
2023-04-22T20:38:54.802Z,8.30
2023-04-22T20:41:25.051Z,3.37
2023-04-22T20:43:52.470Z,3.13
2023-04-22T20:46:22.804Z,5.07
2023-04-22T20:48:50.365Z,4.10
2023-04-22T20:51:17.431Z,5.27
2023-04-22T20:53:45.282Z,3.10
2023-04-22T20:56:14.180Z,4.30
2023-04-22T20:58:41.812Z,3.50
2023-04-22T21:01:09.584Z,3.87
2023-04-22T21:03:49.857Z,3.87
2023-04-22T21:06:18.787Z,3.73
2023-04-22T21:08:48.179Z,5.13
2023-04-22T21:11:23.614Z,4.27
2023-04-22T21:13:52.774Z,4.13
2023-04-22T21:16:25.919Z,4.00
2023-04-22T21:18:58.727Z,4.13
2023-04-22T21:21:34.293Z,4.47
2023-04-22T21:24:02.415Z,4.10
2023-04-22T21:26:31.481Z,3.73
2023-04-22T21:28:59.593Z,4.00
2023-04-22T21:31:27.508Z,4.33
2023-04-22T21:33:55.090Z,4.30
2023-04-22T21:36:27.072Z,4.27
2023-04-22T21:38:54.984Z,5.30
2023-04-22T21:41:26.239Z,5.07
2023-04-22T21:43:54.866Z,4.97
2023-04-22T21:46:23.016Z,4.83
2023-04-22T21:48:50.758Z,4.33
2023-04-22T21:51:17.788Z,4.70
2023-04-22T21:53:45.225Z,4.20
2023-04-22T21:56:12.859Z,4.80
2023-04-22T21:58:40.430Z,4.80
2023-04-22T22:01:09.357Z,4.47
2023-04-22T22:03:37.163Z,6.53
2023-04-22T22:06:07.041Z,4.60
2023-04-22T22:08:35.671Z,5.30
2023-04-22T22:11:03.963Z,5.70
2023-04-22T22:13:31.480Z,5.30
2023-04-22T22:16:00.653Z,5.57
2023-04-22T22:18:29.083Z,3.93
2023-04-22T22:20:56.028Z,4.80
2023-04-22T22:23:23.095Z,4.90
2023-04-22T22:25:50.394Z,4.87
2023-04-22T22:28:17.488Z,4.40
2023-04-22T22:30:44.596Z,5.67
2023-04-22T22:33:11.645Z,7.20
2023-04-22T22:35:41.396Z,5.20
2023-04-22T22:38:08.687Z,5.80
2023-04-22T22:40:38.552Z,6.70
2023-04-22T22:43:08.983Z,5.27
2023-04-22T22:45:36.586Z,8.23
2023-04-22T22:48:04.333Z,5.23
2023-04-22T22:50:31.401Z,5.33
2023-04-22T22:53:01.029Z,5.00
2023-04-22T22:55:28.029Z,5.40
2023-04-22T22:57:54.975Z,5.23
2023-04-22T23:00:25.710Z,6.23
2023-04-22T23:02:56.070Z,5.20
2023-04-22T23:05:24.102Z,5.23
2023-04-22T23:07:54.729Z,7.23
2023-04-22T23:10:23.442Z,5.70
2023-04-22T23:12:53.324Z,6.23
2023-04-22T23:15:20.640Z,5.97
2023-04-22T23:17:50.340Z,5.47
2023-04-22T23:20:24.667Z,6.47
2023-04-22T23:22:53.783Z,5.77
2023-04-22T23:25:23.152Z,5.77
2023-04-22T23:27:54.201Z,5.30
2023-04-22T23:30:29.726Z,5.27
2023-04-22T23:32:57.918Z,5.23
2023-04-22T23:35:27.562Z,5.47
2023-04-22T23:37:57.379Z,5.10
2023-04-22T23:40:25.750Z,5.57
2023-04-22T23:42:52.812Z,6.03
2023-04-22T23:45:19.926Z,5.97
2023-04-22T23:47:47.595Z,5.87
2023-04-22T23:50:16.393Z,5.63
2023-04-22T23:52:47.420Z,6.43
2023-04-22T23:58:07.750Z,5.60
